Time;durP1;ratioP1;P1;durP2;ratioP2;P2;SDS_P1;SDS_P2;PMS_P1;PMS_P2;Temp;Humidity;BMP_temperature;BMP_pressure;BME280_temperature;BME280_humidity;BME280_pressure;Samples;Min_cycle;Max_cycle;Signal;HPM_P1;HPM_P2
2021/12/03 00:02:15;;;;;;;;;;;;;;;0.74;82.10;97805.28;6183673;23;19920;-70
2021/12/03 00:04:40;;;;;;;;;;;;;;;0.76;82.41;97819.00;6181692;23;19920;-68
2021/12/03 00:07:06;;;;;;;;;;;;;;;0.77;82.78;97821.53;6183322;23;19927;-70
2021/12/03 00:09:35;;;;;;;;;;;;;;;0.83;82.42;97824.63;6183907;23;19932;-69
2021/12/03 00:12:01;;;;;;;;;;;;;;;0.85;82.15;97817.53;6182056;23;19921;-67
2021/12/03 00:14:27;;;;;;;;;;;;;;;0.85;82.52;97827.94;6183863;23;20462;-70
2021/12/03 00:16:53;;;;;;;;;;;;;;;0.73;82.78;97819.22;6182021;23;20027;-69
2021/12/03 00:19:18;;;;;;;;;;;;;;;0.79;82.64;97824.00;6183715;23;19920;-70
2021/12/03 00:21:44;;;;;;;;;;;;;;;0.75;82.04;97827.75;6183476;23;19925;-69
2021/12/03 00:24:09;;;;;;;;;;;;;;;0.77;82.53;97826.72;6183174;23;19927;-70
2021/12/03 00:26:35;;;;;;;;;;;;;;;0.79;82.16;97824.00;6183560;23;19927;-69
2021/12/03 00:29:00;;;;;;;;;;;;;;;0.79;82.48;97824.00;6183282;23;19920;-69
2021/12/03 00:31:26;;;;;;;;;;;;;;;0.87;82.34;97815.69;6157073;23;19967;-69
2021/12/03 00:33:52;;;;;;;;;;;;;;;0.92;81.97;97808.38;6183838;23;19920;-68
2021/12/03 00:36:17;;;;;;;;;;;;;;;0.88;82.27;97814.75;6183445;23;19927;-69
2021/12/03 00:38:46;;;;;;;;;;;;;;;0.87;82.48;97807.88;6183585;23;19920;-69
2021/12/03 00:41:13;;;;;;;;;;;;;;;0.86;81.92;97808.81;6184133;23;20054;-70
2021/12/03 00:43:43;;;;;;;;;;;;;;;0.85;82.62;97802.78;6184367;23;19920;-69
2021/12/03 00:46:10;;;;;;;;;;;;;;;0.83;83.02;97814.22;6181686;23;20366;-69
2021/12/03 00:48:37;;;;;;;;;;;;;;;0.86;82.96;97808.81;6183047;23;20003;-72
2021/12/03 00:51:04;;;;;;;;;;;;;;;0.84;82.53;97819.31;6182782;23;20007;-71
2021/12/03 00:53:29;;;;;;;;;;;;;;;0.82;82.83;97815.16;6183475;23;19924;-70
2021/12/03 00:55:55;;;;;;;;;;;;;;;0.90;82.97;97831.09;6183418;23;19920;-70
2021/12/03 00:58:20;;;;;;;;;;;;;;;0.92;82.50;97829.22;6183058;23;19920;-68
2021/12/03 01:00:46;;;;;;;;;;;;;;;0.94;82.70;97832.56;6181371;23;19920;-71
2021/12/03 01:03:11;;;;;;;;;;;;;;;0.99;82.67;97827.88;6183314;23;19958;-69
2021/12/03 01:05:37;;;;;;;;;;;;;;;1.00;82.26;97826.94;6183252;23;20003;-71
2021/12/03 01:08:03;;;;;;;;;;;;;;;1.08;82.07;97822.03;6183199;23;19927;-69
2021/12/03 01:10:29;;;;;;;;;;;;;;;1.07;81.79;97820.38;6182949;23;19921;-70
2021/12/03 01:12:55;;;;;;;;;;;;;;;1.08;82.16;97816.81;6183196;23;19926;-68
2021/12/03 01:15:22;;;;;;;;;;;;;;;1.05;82.45;97819.63;6183040;23;20006;-69
2021/12/03 01:17:47;;;;;;;;;;;;;;;1.08;82.24;97811.59;6183413;23;20003;-67
2021/12/03 01:20:13;;;;;;;;;;;;;;;1.11;81.72;97810.59;6182580;23;19943;-67
2021/12/03 01:22:39;;;;;;;;;;;;;;;1.07;82.23;97809.97;6183447;23;19920;-69
2021/12/03 01:25:06;;;;;;;;;;;;;;;1.08;82.14;97814.22;6181588;23;20468;-68
2021/12/03 01:27:31;;;;;;;;;;;;;;;1.10;81.74;97821.94;6183349;23;19920;-67
2021/12/03 01:29:57;;;;;;;;;;;;;;;1.07;82.05;97827.34;6183127;23;19974;-68
2021/12/03 01:32:22;;;;;;;;;;;;;;;1.17;81.90;97833.56;6183061;23;19920;-69
2021/12/03 01:34:48;;;;;;;;;;;;;;;1.17;81.68;97827.53;6183239;23;19924;-67
2021/12/03 01:37:13;;;;;;;;;;;;;;;1.17;81.30;97840.56;6207997;23;20023;-67
2021/12/03 01:39:39;;;;;;;;;;;;;;;1.21;81.20;97831.59;6183524;23;19927;-66
2021/12/03 01:42:05;;;;;;;;;;;;;;;1.20;81.95;97848.19;6184998;23;19927;-68
2021/12/03 01:44:30;;;;;;;;;;;;;;;1.17;81.51;97849.19;6185056;23;20007;-67
2021/12/03 01:46:56;;;;;;;;;;;;;;;1.21;81.48;97849.81;6185095;23;19979;-68
2021/12/03 01:49:23;;;;;;;;;;;;;;;1.21;81.43;97855.03;6184676;23;19927;-67
2021/12/03 01:51:48;;;;;;;;;;;;;;;1.25;81.00;97857.34;6184606;23;19924;-68
2021/12/03 01:54:14;;;;;;;;;;;;;;;1.27;80.91;97859.81;6182799;23;19948;-69
2021/12/03 01:56:40;;;;;;;;;;;;;;;1.26;81.60;97855.56;6182413;23;19920;-69
2021/12/03 01:59:07;;;;;;;;;;;;;;;1.29;81.48;97866.59;6184213;23;20019;-68
2021/12/03 02:01:33;;;;;;;;;;;;;;;1.29;80.72;97857.97;6184154;23;19928;-68
2021/12/03 02:04:00;;;;;;;;;;;;;;;1.33;80.92;97866.41;6182534;23;19921;-68
2021/12/03 02:06:28;;;;;;;;;;;;;;;1.36;80.58;97874.84;6183662;23;19924;-68
2021/12/03 02:08:54;;;;;;;;;;;;;;;1.35;80.56;97877.56;6208447;23;20287;-67
2021/12/03 02:11:19;;;;;;;;;;;;;;;1.40;81.11;97880.66;6184048;23;19926;-67
2021/12/03 02:13:45;;;;;;;;;;;;;;;1.38;81.01;97872.13;6184301;23;19920;-66
2021/12/03 02:16:11;;;;;;;;;;;;;;;1.36;81.08;97882.66;6184301;23;19920;-67
2021/12/03 02:18:37;;;;;;;;;;;;;;;1.33;80.60;97880.22;6183157;23;20022;-67
2021/12/03 02:21:04;;;;;;;;;;;;;;;1.36;80.42;97885.25;6184549;23;19948;-69
2021/12/03 02:23:29;;;;;;;;;;;;;;;1.31;80.54;97892.56;6158588;23;19920;-69
2021/12/03 02:25:55;;;;;;;;;;;;;;;1.31;80.63;97892.56;6184433;23;19924;-68
2021/12/03 02:28:22;;;;;;;;;;;;;;;1.33;80.94;97895.88;6184524;23;19999;-70
2021/12/03 02:30:48;;;;;;;;;;;;;;;1.28;80.68;97884.94;6184623;23;20336;-70
2021/12/03 02:33:14;;;;;;;;;;;;;;;1.26;80.80;97884.22;6184502;23;19920;-70
2021/12/03 02:35:40;;;;;;;;;;;;;;;1.14;80.80;97878.06;6184863;23;19921;-70
2021/12/03 02:38:06;;;;;;;;;;;;;;;1.02;81.19;97884.91;6182802;23;19920;-69
2021/12/03 02:40:32;;;;;;;;;;;;;;;0.90;82.35;97877.94;6185117;23;20064;-70
2021/12/03 02:42:57;;;;;;;;;;;;;;;0.94;82.21;97890.63;6185454;23;19992;-70
2021/12/03 02:45:23;;;;;;;;;;;;;;;0.94;81.88;97874.19;6184479;23;19951;-69
2021/12/03 02:47:49;;;;;;;;;;;;;;;0.98;82.11;97869.63;6184398;23;19931;-67
2021/12/03 02:50:15;;;;;;;;;;;;;;;0.97;82.48;97868.78;6182481;23;19959;-68
2021/12/03 02:52:41;;;;;;;;;;;;;;;0.98;81.78;97869.63;6184643;23;19947;-69
2021/12/03 02:55:07;;;;;;;;;;;;;;;0.92;81.95;97873.47;6184190;23;20347;-69
2021/12/03 02:57:32;;;;;;;;;;;;;;;0.92;81.85;97874.31;6184492;23;20389;-69
2021/12/03 02:59:58;;;;;;;;;;;;;;;0.95;82.49;97881.06;6184075;23;20328;-68
2021/12/03 03:02:24;;;;;;;;;;;;;;;0.92;82.33;97889.06;6184178;23;19924;-69
2021/12/03 03:04:49;;;;;;;;;;;;;;;0.98;82.08;97904.28;6184129;23;19999;-69
2021/12/03 03:07:15;;;;;;;;;;;;;;;1.07;82.11;97908.88;6183763;23;19991;-70
2021/12/03 03:09:44;;;;;;;;;;;;;;;1.13;81.67;97911.09;6184538;23;19982;-69
2021/12/03 03:12:10;;;;;;;;;;;;;;;1.17;81.26;97908.25;6184284;23;20252;-67
2021/12/03 03:14:35;;;;;;;;;;;;;;;1.18;81.24;97900.34;6184396;23;20011;-68
2021/12/03 03:17:01;;;;;;;;;;;;;;;1.15;81.67;97908.38;6182667;23;20367;-69
2021/12/03 03:19:27;;;;;;;;;;;;;;;1.19;81.70;97907.22;6181998;23;19920;-69
2021/12/03 03:21:52;;;;;;;;;;;;;;;1.25;80.95;97908.59;6184127;23;19947;-68
2021/12/03 03:24:18;;;;;;;;;;;;;;;1.35;81.15;97907.03;6183620;23;19920;-68
2021/12/03 03:26:45;;;;;;;;;;;;;;;1.32;81.09;97909.84;6184109;23;19924;-70
2021/12/03 03:29:13;;;;;;;;;;;;;;;1.29;80.78;97912.66;6183886;23;19994;-69
2021/12/03 03:31:39;;;;;;;;;;;;;;;1.33;80.74;97903.69;6183249;23;19932;-69
2021/12/03 03:34:05;;;;;;;;;;;;;;;1.33;80.95;97910.66;6183547;23;20003;-69
2021/12/03 03:36:32;;;;;;;;;;;;;;;1.38;80.55;97919.00;6183695;23;19921;-68
2021/12/03 03:38:57;;;;;;;;;;;;;;;1.39;80.40;97911.06;6183845;23;20050;-69
2021/12/03 03:41:23;;;;;;;;;;;;;;;1.45;80.63;97920.25;6183961;23;19920;-69
2021/12/03 03:43:49;;;;;;;;;;;;;;;1.51;80.66;97917.22;6181921;23;19920;-69
2021/12/03 03:46:14;;;;;;;;;;;;;;;1.57;80.28;97922.03;6182625;23;19994;-69
2021/12/03 03:48:40;;;;;;;;;;;;;;;1.59;79.92;97930.53;6182083;23;19999;-67
2021/12/03 03:51:06;;;;;;;;;;;;;;;1.56;79.96;97922.13;6182631;23;19920;-69
2021/12/03 03:53:31;;;;;;;;;;;;;;;1.59;79.94;97922.72;6183113;23;19920;-69
2021/12/03 03:55:57;;;;;;;;;;;;;;;1.48;79.89;97920.03;6182390;23;19920;-68
2021/12/03 03:58:22;;;;;;;;;;;;;;;1.40;79.97;97924.94;6181724;23;19920;-69
2021/12/03 04:00:48;;;;;;;;;;;;;;;1.36;80.12;97926.94;6183050;23;19924;-68
2021/12/03 04:03:13;;;;;;;;;;;;;;;1.26;80.72;97924.09;6183529;23;20360;-68
2021/12/03 04:05:39;;;;;;;;;;;;;;;1.18;80.64;97922.94;6183709;23;19927;-68
2021/12/03 04:08:05;;;;;;;;;;;;;;;1.07;81.15;97937.53;6183928;23;20002;-69
2021/12/03 04:10:31;;;;;;;;;;;;;;;1.03;81.38;97940.44;6183381;23;19920;-70
2021/12/03 04:12:56;;;;;;;;;;;;;;;0.95;81.12;97943.53;6183819;23;19924;-68
2021/12/03 04:15:22;;;;;;;;;;;;;;;0.87;81.19;97948.41;6182700;23;19927;-67
2021/12/03 04:17:48;;;;;;;;;;;;;;;0.90;81.75;97950.81;6182399;23;19924;-69
2021/12/03 04:20:14;;;;;;;;;;;;;;;0.90;81.69;97961.22;6182910;23;20264;-69
2021/12/03 04:22:40;;;;;;;;;;;;;;;0.87;81.45;97967.44;6181982;23;19967;-69
2021/12/03 04:25:06;;;;;;;;;;;;;;;0.84;81.31;97970.25;6182546;23;19920;-67
2021/12/03 04:27:32;;;;;;;;;;;;;;;0.83;81.43;97962.56;6207681;23;19920;-70
2021/12/03 04:29:58;;;;;;;;;;;;;;;0.91;81.27;97968.09;6183210;23;20008;-69
2021/12/03 04:32:25;;;;;;;;;;;;;;;0.97;80.88;97972.88;6183283;23;20398;-68
2021/12/03 04:34:51;;;;;;;;;;;;;;;1.09;80.92;97969.47;6183558;23;19920;-67
2021/12/03 04:37:17;;;;;;;;;;;;;;;1.13;80.64;97968.38;6183189;23;19920;-68
2021/12/03 04:39:42;;;;;;;;;;;;;;;1.22;80.29;97972.13;6207284;23;19970;-68
2021/12/03 04:42:08;;;;;;;;;;;;;;;1.34;79.75;97974.84;6183991;23;19920;-68
2021/12/03 04:44:35;;;;;;;;;;;;;;;1.38;80.17;97971.91;6183652;23;20017;-68
2021/12/03 04:47:01;;;;;;;;;;;;;;;1.43;79.64;97971.63;6183746;23;20417;-69
2021/12/03 04:49:26;;;;;;;;;;;;;;;1.47;79.12;97973.09;6183246;23;19924;-70
2021/12/03 04:51:52;;;;;;;;;;;;;;;1.47;79.18;97977.44;6183445;23;19927;-68
2021/12/03 04:54:18;;;;;;;;;;;;;;;1.51;79.28;97977.16;6183232;23;19935;-67
2021/12/03 04:56:43;;;;;;;;;;;;;;;1.49;79.01;97983.41;6183575;23;19921;-69
2021/12/03 04:59:09;;;;;;;;;;;;;;;1.57;78.95;97986.31;6183657;23;19998;-68
2021/12/03 05:01:34;;;;;;;;;;;;;;;1.62;78.60;97989.47;6183744;23;19931;-69
2021/12/03 05:04:00;;;;;;;;;;;;;;;1.60;79.10;97994.75;6183545;23;20283;-68
2021/12/03 05:06:52;;;;;;;;;;;;;;;1.47;79.05;98000.91;6183069;23;19927;-70
2021/12/03 05:09:17;;;;;;;;;;;;;;;1.42;79.27;97994.22;6180540;23;20347;-71
2021/12/03 05:11:42;;;;;;;;;;;;;;;1.37;79.44;97996.31;6185673;23;19920;-70
2021/12/03 05:14:08;;;;;;;;;;;;;;;1.31;79.71;98009.75;6185527;23;19991;-69
2021/12/03 05:16:34;;;;;;;;;;;;;;;1.30;79.78;98008.06;6185054;23;19924;-69
2021/12/03 05:18:59;;;;;;;;;;;;;;;1.40;79.72;98011.72;6184120;23;20288;-68
2021/12/03 05:21:25;;;;;;;;;;;;;;;1.49;79.02;98022.47;6185720;23;19960;-69
2021/12/03 05:23:51;;;;;;;;;;;;;;;1.57;79.24;98028.00;6185823;23;19978;-69
2021/12/03 05:26:16;;;;;;;;;;;;;;;1.60;78.89;98028.63;6185506;23;19974;-70
2021/12/03 05:28:42;;;;;;;;;;;;;;;1.65;78.55;98038.75;6208498;23;20255;-68
2021/12/03 05:31:07;;;;;;;;;;;;;;;1.73;78.75;98036.47;6184690;23;20259;-67
2021/12/03 05:33:33;;;;;;;;;;;;;;;1.77;78.44;98048.34;6184245;23;19975;-67
2021/12/03 05:35:59;;;;;;;;;;;;;;;1.72;77.89;98020.91;6184377;23;19927;-69
2021/12/03 05:38:24;;;;;;;;;;;;;;;1.72;77.97;98036.56;6183104;23;19924;-71
2021/12/03 05:40:50;;;;;;;;;;;;;;;1.73;78.36;98036.47;6185114;23;19966;-70
2021/12/03 05:43:16;;;;;;;;;;;;;;;1.68;78.30;98041.13;6184692;23;19924;-69
2021/12/03 05:45:41;;;;;;;;;;;;;;;1.58;78.23;98050.50;6185332;23;19921;-69
2021/12/03 05:48:07;;;;;;;;;;;;;;;1.59;78.46;98050.41;6183300;23;19927;-68
2021/12/03 05:50:33;;;;;;;;;;;;;;;1.55;78.08;98059.38;6185119;23;20015;-68
2021/12/03 05:53:00;;;;;;;;;;;;;;;1.48;78.90;98060.69;6184041;23;20003;-69
2021/12/03 05:55:25;;;;;;;;;;;;;;;1.42;79.20;98061.97;6184605;23;19920;-69
2021/12/03 05:57:51;;;;;;;;;;;;;;;1.37;79.38;98074.44;6184541;23;19977;-69
2021/12/03 06:00:19;;;;;;;;;;;;;;;1.41;79.44;98070.72;6186563;23;19920;-69
2021/12/03 06:02:44;;;;;;;;;;;;;;;1.47;79.34;98069.47;6185460;23;19924;-69
2021/12/03 06:05:10;;;;;;;;;;;;;;;1.41;79.29;98070.72;6185474;23;19963;-69
2021/12/03 06:07:36;;;;;;;;;;;;;;;1.49;79.20;98085.00;6183837;23;19920;-69
2021/12/03 06:10:02;;;;;;;;;;;;;;;1.52;78.59;98085.63;6184270;23;19920;-70
2021/12/03 06:12:28;;;;;;;;;;;;;;;1.67;78.91;98082.94;6186759;23;19920;-70
2021/12/03 06:14:54;;;;;;;;;;;;;;;1.65;78.00;98080.44;6208782;23;19931;-68
2021/12/03 06:17:19;;;;;;;;;;;;;;;1.62;78.06;98080.66;6184950;23;19944;-70
2021/12/03 06:19:45;;;;;;;;;;;;;;;1.59;78.52;98084.28;6158599;23;20371;-69
2021/12/03 06:22:11;;;;;;;;;;;;;;;1.54;78.37;98085.53;6182633;23;20300;-69
2021/12/03 06:24:37;;;;;;;;;;;;;;;1.43;78.61;98084.47;6183632;23;20340;-70
2021/12/03 06:27:03;;;;;;;;;;;;;;;1.46;78.23;98099.06;6183738;23;19951;-70
2021/12/03 06:29:29;;;;;;;;;;;;;;;1.35;78.37;98096.34;6183560;23;19924;-73
2021/12/03 06:31:54;;;;;;;;;;;;;;;1.31;79.13;98090.47;6184210;23;19924;-71
2021/12/03 06:34:20;;;;;;;;;;;;;;;1.28;78.70;98099.31;6182716;23;19958;-74
2021/12/03 06:36:45;;;;;;;;;;;;;;;1.24;79.16;98104.81;6108861;23;20365;-72
2021/12/03 06:39:11;;;;;;;;;;;;;;;1.23;79.28;98092.72;6185095;23;20003;-70
2021/12/03 06:41:37;;;;;;;;;;;;;;;1.35;79.20;98098.94;6132848;23;19983;-70
2021/12/03 06:44:04;;;;;;;;;;;;;;;1.42;78.64;98106.25;6207335;23;20004;-71
2021/12/03 06:46:30;;;;;;;;;;;;;;;1.50;79.02;98105.72;6183900;23;19927;-69
2021/12/03 06:48:56;;;;;;;;;;;;;;;1.62;78.52;98114.53;6184096;23;19920;-70
2021/12/03 06:51:22;;;;;;;;;;;;;;;1.60;78.36;98126.81;6183620;23;19920;-71
2021/12/03 06:53:58;;;;;;;;;;;;;;;1.65;77.91;98124.75;6184233;23;19920;-71
2021/12/03 06:56:31;;;;;;;;;;;;;;;1.74;77.64;98124.13;6183214;23;19924;-71
2021/12/03 06:58:56;;;;;;;;;;;;;;;1.80;76.91;98128.09;6183685;23;19920;-70
2021/12/03 07:01:22;;;;;;;;;;;;;;;1.86;76.70;98137.31;6183785;23;19991;-71
2021/12/03 07:03:48;;;;;;;;;;;;;;;1.76;76.65;98137.91;6183374;23;20320;-71
2021/12/03 07:06:13;;;;;;;;;;;;;;;1.83;76.78;98148.75;6182328;23;19920;-70
2021/12/03 07:08:39;;;;;;;;;;;;;;;1.91;76.79;98141.25;6185055;23;19927;-70
2021/12/03 07:11:04;;;;;;;;;;;;;;;1.93;76.18;98135.94;6183850;23;19924;-69
2021/12/03 07:13:30;;;;;;;;;;;;;;;2.09;76.33;98134.00;6158241;23;19920;-69
2021/12/03 07:15:57;;;;;;;;;;;;;;;2.23;76.14;98134.81;6185199;23;19927;-68
2021/12/03 07:18:22;;;;;;;;;;;;;;;2.30;75.58;98146.50;6184841;23;19927;-69
2021/12/03 07:20:48;;;;;;;;;;;;;;;2.23;75.63;98129.59;6183382;23;19924;-70
2021/12/03 07:23:14;;;;;;;;;;;;;;;2.20;75.72;98108.97;6184888;23;20324;-69
2021/12/03 07:25:40;;;;;;;;;;;;;;;2.19;75.23;98112.50;6207817;23;19942;-67
2021/12/03 07:28:07;;;;;;;;;;;;;;;2.27;75.49;98125.88;6183475;23;19920;-69
2021/12/03 07:30:32;;;;;;;;;;;;;;;2.23;75.43;98120.03;6185527;23;19927;-70
2021/12/03 07:32:58;;;;;;;;;;;;;;;2.16;75.50;98123.16;6185825;23;19920;-72
2021/12/03 07:35:24;;;;;;;;;;;;;;;2.15;75.27;98144.94;6184609;23;19931;-72
2021/12/03 07:37:53;;;;;;;;;;;;;;;2.04;75.66;98151.69;6182125;23;19920;-70
2021/12/03 07:40:18;;;;;;;;;;;;;;;2.00;75.92;98150.25;6182899;23;19930;-72
2021/12/03 07:42:44;;;;;;;;;;;;;;;2.05;75.83;98163.81;6183857;23;20011;-71
2021/12/03 07:45:11;;;;;;;;;;;;;;;2.06;75.68;98165.47;6185460;23;20347;-74
2021/12/03 07:47:36;;;;;;;;;;;;;;;2.02;75.41;98177.06;6158732;23;19943;-69
2021/12/03 07:50:03;;;;;;;;;;;;;;;1.98;75.34;98173.00;6182934;23;20344;-71
2021/12/03 07:52:29;;;;;;;;;;;;;;;2.00;75.71;98165.06;6183113;23;19927;-70
2021/12/03 07:54:54;;;;;;;;;;;;;;;2.00;75.50;98171.09;6182832;23;19956;-72
2021/12/03 07:57:20;;;;;;;;;;;;;;;2.01;75.31;98166.75;6183845;23;19927;-72
2021/12/03 07:59:45;;;;;;;;;;;;;;;2.07;74.85;98174.16;6179966;23;19943;-72
2021/12/03 08:02:11;;;;;;;;;;;;;;;2.03;74.77;98163.09;6186400;23;19921;-71
2021/12/03 08:04:39;;;;;;;;;;;;;;;2.02;74.63;98157.94;6210273;23;19920;-73
2021/12/03 08:07:05;;;;;;;;;;;;;;;2.01;74.85;98166.75;6187842;23;19997;-72
2021/12/03 08:09:31;;;;;;;;;;;;;;;2.04;74.97;98162.13;6185340;23;19927;-72
2021/12/03 08:11:56;;;;;;;;;;;;;;;2.01;74.69;98167.56;6186110;23;19920;-73
2021/12/03 08:14:47;;;;;;;;;;;;;;;2.13;74.22;98175.50;6185822;23;19970;-75
2021/12/03 08:17:16;;;;;;;;;;;;;;;2.22;73.67;98169.69;6185900;23;19955;-77
2021/12/03 08:19:42;;;;;;;;;;;;;;;2.29;73.67;98175.31;6187641;23;19974;-73
2021/12/03 08:22:07;;;;;;;;;;;;;;;2.30;73.64;98172.59;6165103;23;19920;-72
2021/12/03 08:24:36;;;;;;;;;;;;;;;2.30;73.27;98156.94;6185852;23;19927;-73
2021/12/03 08:27:01;;;;;;;;;;;;;;;2.32;72.94;98164.66;6187110;23;20259;-72
2021/12/03 08:29:27;;;;;;;;;;;;;;;2.40;72.45;98172.81;6182020;23;19916;-72
2021/12/03 08:31:53;;;;;;;;;;;;;;;2.45;72.49;98159.47;6184489;23;19967;-69
2021/12/03 08:34:18;;;;;;;;;;;;;;;2.49;71.53;98187.81;6108747;23;19926;-72
2021/12/03 08:36:44;;;;;;;;;;;;;;;2.52;71.58;98171.97;6186730;23;19947;-70
2021/12/03 08:39:09;;;;;;;;;;;;;;;2.52;71.07;98187.63;6186091;23;19927;-73
2021/12/03 08:41:35;;;;;;;;;;;;;;;2.55;70.74;98181.38;6185056;23;19928;-72
2021/12/03 08:44:02;;;;;;;;;;;;;;;2.53;70.73;98194.53;6185748;23;19974;-70
2021/12/03 08:46:38;;;;;;;;;;;;;;;2.49;70.68;98176.56;6185458;23;19920;-72
2021/12/03 08:56:58;;;;;;;;;;;;;;;2.79;69.72;98188.44;6183153;23;19944;-72
2021/12/03 08:59:23;;;;;;;;;;;;;;;2.70;69.79;98195.16;6108960;23;20453;-73
2021/12/03 09:01:49;;;;;;;;;;;;;;;2.77;69.90;98190.31;6186290;23;19944;-69
2021/12/03 09:04:16;;;;;;;;;;;;;;;2.73;69.96;98187.94;6208076;23;19931;-71
2021/12/03 09:06:41;;;;;;;;;;;;;;;2.75;70.18;98187.81;6158613;23;19921;-70
2021/12/03 09:09:08;;;;;;;;;;;;;;;2.67;70.03;98190.97;6185383;23;20050;-70
2021/12/03 09:11:36;;;;;;;;;;;;;;;2.66;70.64;98191.91;6183313;23;20437;-69
2021/12/03 09:14:10;;;;;;;;;;;;;;;2.70;70.59;98193.34;6183785;23;19920;-71
2021/12/03 09:16:35;;;;;;;;;;;;;;;2.69;70.80;98199.53;6182351;23;19955;-69
2021/12/03 09:19:05;;;;;;;;;;;;;;;2.68;70.67;98197.88;6183515;23;19921;-69
2021/12/03 09:21:34;;;;;;;;;;;;;;;2.66;70.86;98197.13;6182021;23;19948;-73
2021/12/03 09:26:34;;;;;;;;;;;;;;;2.58;71.57;98191.63;6183383;23;20340;-72
2021/12/03 09:29:11;;;;;;;;;;;;;;;2.60;71.54;98210.59;6182509;23;19919;-72
2021/12/03 09:31:38;;;;;;;;;;;;;;;2.66;71.46;98214.56;6206593;23;20496;-73
2021/12/03 09:34:07;;;;;;;;;;;;;;;2.67;71.47;98196.19;6183593;23;19928;-74
2021/12/03 09:36:33;;;;;;;;;;;;;;;2.61;71.39;98188.78;6183864;23;20319;-73
2021/12/03 09:39:00;;;;;;;;;;;;;;;2.54;71.69;98182.31;6184503;23;19920;-70
2021/12/03 09:41:26;;;;;;;;;;;;;;;2.63;71.68;98194.75;6183962;23;20298;-73
2021/12/03 09:43:53;;;;;;;;;;;;;;;2.62;71.64;98182.63;6157241;23;20011;-72
2021/12/03 09:46:26;;;;;;;;;;;;;;;2.61;71.69;98180.94;6183942;23;19959;-72
2021/12/03 09:51:36;;;;;;;;;;;;;;;2.66;71.48;98189.28;6185144;23;19927;-71
2021/12/03 09:54:26;;;;;;;;;;;;;;;2.64;71.27;98191.19;6184054;23;19925;-70
2021/12/03 09:57:02;;;;;;;;;;;;;;;2.60;71.50;98189.72;6134384;23;20410;-72
2021/12/03 10:14:59;;;;;;;;;;;;;;;2.37;72.19;98205.16;6184182;23;19920;-71
2021/12/03 10:17:40;;;;;;;;;;;;;;;2.43;71.95;98194.31;6182924;23;19931;-70
2021/12/03 10:23:52;;;;;;;;;;;;;;;2.52;71.82;98208.50;6181870;23;20003;-72
2021/12/03 10:28:46;;;;;;;;;;;;;;;2.42;72.17;98199.66;6182568;23;19920;-70
2021/12/03 10:34:42;;;;;;;;;;;;;;;2.45;72.39;98191.59;6153561;23;19920;-71
2021/12/03 10:40:07;;;;;;;;;;;;;;;2.45;72.27;98181.16;6209961;23;19948;-71
2021/12/03 10:42:49;;;;;;;;;;;;;;;2.38;72.08;98185.97;6184566;23;19924;-72
2021/12/03 10:45:23;;;;;;;;;;;;;;;2.43;71.95;98181.28;6134816;23;19924;-75
2021/12/03 10:53:09;;;;;;;;;;;;;;;2.49;72.12;98207.88;6186969;23;19927;-73
2021/12/03 10:56:09;;;;;;;;;;;;;;;2.41;72.35;98201.41;6209610;23;20294;-75
2021/12/03 12:09:05;;;;;;;;;;;;;;;2.16;72.20;98211.81;6064971;23;20349;-71
2021/12/03 12:15:00;;;;;;;;;;;;;;;2.14;72.31;98218.91;6066575;23;19969;-70
2021/12/03 12:23:39;;;;;;;;;;;;;;;2.27;72.69;98201.50;6127244;23;19920;-70
2021/12/03 12:58:03;;;;;;;;;;;;;;;2.09;73.16;98154.84;6152558;23;19999;-75
2021/12/03 13:17:18;;;;;;;;;;;;;;;2.16;72.88;98133.59;6130838;23;19920;-72
2021/12/03 14:08:43;;;;;;;;;;;;;;;2.26;72.85;98129.41;6163492;23;19978;-73
2021/12/03 14:41:41;;;;;;;;;;;;;;;2.01;76.83;98120.63;6098958;23;19921;-71
2021/12/03 14:52:13;;;;;;;;;;;;;;;1.74;78.05;98111.09;6122863;23;20371;-69
2021/12/03 14:57:08;;;;;;;;;;;;;;;1.62;78.72;98104.09;6124113;23;19925;-71
2021/12/03 14:59:39;;;;;;;;;;;;;;;1.57;78.95;98101.81;6098778;23;19921;-70
2021/12/03 15:02:57;;;;;;;;;;;;;;;1.49;79.23;98088.44;6122284;23;19925;-70
2021/12/03 15:05:03;;;;;;;;;;;;;;;1.51;79.78;98085.72;6102282;23;19921;-71
2021/12/03 15:07:37;;;;;;;;;;;;;;;1.40;79.80;98079.44;6122138;23;19993;-71
2021/12/03 15:10:06;;;;;;;;;;;;;;;1.37;80.12;98084.03;6136875;23;19920;-71
2021/12/03 15:20:40;;;;;;;;;;;;;;;1.31;81.38;98067.03;6184303;23;20003;-71
2021/12/03 15:23:13;;;;;;;;;;;;;;;1.34;80.98;98076.41;6183898;23;19925;-71
2021/12/03 15:31:43;;;;;;;;;;;;;;;1.29;81.43;98076.72;6182114;23;19921;-71
2021/12/03 15:36:52;;;;;;;;;;;;;;;1.12;82.05;98065.63;6182489;23;19951;-71
2021/12/03 15:56:44;;;;;;;;;;;;;;;1.14;82.01;98047.28;6182773;23;19920;-71
2021/12/03 16:04:08;;;;;;;;;;;;;;;1.18;82.43;98037.50;6184244;23;19975;-73
2021/12/03 16:23:02;;;;;;;;;;;;;;;1.39;82.43;98015.25;6209823;23;19921;-72
2021/12/03 16:53:02;;;;;;;;;;;;;;;2.06;78.79;97977.72;6121677;23;20395;-75
2021/12/03 16:55:28;;;;;;;;;;;;;;;2.00;78.78;97975.56;6101072;23;20344;-75
2021/12/03 16:57:54;;;;;;;;;;;;;;;1.95;78.95;97969.84;6101040;23;19921;-72
2021/12/03 17:00:25;;;;;;;;;;;;;;;1.80;79.26;97956.09;6102110;23;19957;-76
2021/12/03 17:03:04;;;;;;;;;;;;;;;1.89;79.48;97959.81;6123256;23;20345;-74
2021/12/03 17:14:23;;;;;;;;;;;;;;;1.63;79.92;97959.00;6072361;23;19941;-72
2021/12/03 17:49:32;;;;;;;;;;;;;;;1.15;81.79;97977.81;6186240;23;20027;-75
2021/12/03 18:00:13;;;;;;;;;;;;;;;1.27;82.20;97948.38;6184445;23;19927;-72
2021/12/03 18:02:47;;;;;;;;;;;;;;;1.34;81.56;97943.59;6159536;23;19920;-74
2021/12/03 18:13:53;;;;;;;;;;;;;;;1.27;82.29;97950.97;6191900;23;19943;-73
2021/12/03 18:16:27;;;;;;;;;;;;;;;1.20;82.05;97954.94;6183547;23;19938;-72
2021/12/03 18:51:29;;;;;;;;;;;;;;;1.56;80.80;97959.44;6063681;23;19921;-74
2021/12/03 18:54:17;;;;;;;;;;;;;;;1.48;80.38;97984.34;6041854;23;20037;-74
2021/12/03 18:56:46;;;;;;;;;;;;;;;1.50;80.42;97974.66;6022668;23;19921;-74
2021/12/03 18:59:12;;;;;;;;;;;;;;;1.51;80.49;97984.13;6041146;23;19925;-73
2021/12/03 19:01:38;;;;;;;;;;;;;;;1.33;80.47;97987.00;6065050;23;20012;-73
2021/12/03 19:07:05;;;;;;;;;;;;;;;1.49;80.26;98025.09;6065119;23;19928;-73
2021/12/03 19:09:28;;;;;;;;;;;;;;;1.58;80.38;98014.03;6064651;23;20041;-74
2021/12/03 19:12:04;;;;;;;;;;;;;;;1.58;80.17;98011.44;6103484;23;19920;-74
2021/12/03 19:14:34;;;;;;;;;;;;;;;1.50;80.01;98005.91;6112544;23;19920;-72
2021/12/03 19:17:00;;;;;;;;;;;;;;;1.66;79.82;98005.69;6159925;23;19920;-73
2021/12/03 19:19:27;;;;;;;;;;;;;;;1.60;79.32;98006.97;6209291;23;19971;-73
2021/12/03 19:21:57;;;;;;;;;;;;;;;1.51;80.00;97997.13;6158892;23;19971;-74
2021/12/03 19:24:23;;;;;;;;;;;;;;;1.54;79.87;98002.16;6185420;23;19920;-74
2021/12/03 19:26:50;;;;;;;;;;;;;;;1.71;79.60;98003.63;6185330;23;19990;-75
2021/12/03 19:29:18;;;;;;;;;;;;;;;1.67;79.08;97989.97;6159992;23;19989;-75
2021/12/03 19:31:46;;;;;;;;;;;;;;;1.68;79.21;97983.81;6161017;23;20302;-77
2021/12/03 19:34:14;;;;;;;;;;;;;;;1.67;79.10;97983.91;6185676;23;19994;-73
2021/12/03 19:36:45;;;;;;;;;;;;;;;1.50;79.22;97996.31;6161482;23;19920;-75
2021/12/03 19:39:11;;;;;;;;;;;;;;;1.55;79.01;98001.22;6135628;23;19924;-75
2021/12/03 19:44:18;;;;;;;;;;;;;;;1.38;79.41;98008.38;6160360;23;20259;-71
2021/12/03 19:46:58;;;;;;;;;;;;;;;1.44;79.32;97994.94;6183890;23;19927;-74
2021/12/03 19:52:30;;;;;;;;;;;;;;;1.46;79.78;98018.31;6055749;23;19967;-75
2021/12/03 19:54:56;;;;;;;;;;;;;;;1.51;79.88;98012.78;6100139;23;19929;-73
2021/12/03 19:57:23;;;;;;;;;;;;;;;1.41;79.62;98017.78;6148419;23;19944;-76
2021/12/03 19:59:49;;;;;;;;;;;;;;;1.38;79.78;98017.97;6100833;23;20442;-75
2021/12/03 20:02:15;;;;;;;;;;;;;;;1.39;79.82;98028.28;6075574;23;19921;-77
2021/12/03 20:04:43;;;;;;;;;;;;;;;1.52;79.97;98017.06;6150145;23;19943;-73
2021/12/03 20:07:08;;;;;;;;;;;;;;;1.56;79.27;98015.94;6123120;23;20253;-77
2021/12/03 20:09:41;;;;;;;;;;;;;;;1.50;78.73;98014.56;6103007;23;19920;-75
2021/12/03 20:12:12;;;;;;;;;;;;;;;1.49;78.79;98012.06;6125741;23;19937;-75
2021/12/03 20:14:40;;;;;;;;;;;;;;;1.45;79.15;98014.84;6101503;23;19996;-74
2021/12/03 20:17:16;;;;;;;;;;;;;;;1.40;79.11;98026.53;6100954;23;19925;-74
2021/12/03 20:19:46;;;;;;;;;;;;;;;1.50;79.34;98034.56;6102774;23;20435;-74
2021/12/03 20:22:20;;;;;;;;;;;;;;;1.51;78.91;98031.00;6145272;23;19921;-76
2021/12/03 20:24:58;;;;;;;;;;;;;;;1.45;78.13;98029.66;6123870;23;19971;-73
2021/12/03 20:27:29;;;;;;;;;;;;;;;1.35;78.47;98039.03;6147131;23;19931;-73